createdAt,value
2019-06-01T00:00:46.248Z,101780.58
2019-06-01T00:03:13.853Z,101776.77
2019-06-01T00:05:42.763Z,101775.54
2019-06-01T00:08:11.663Z,101771.45
2019-06-01T00:10:41.058Z,101766.13
2019-06-01T00:13:09.481Z,101769.45
2019-06-01T00:15:38.427Z,101768.09
2019-06-01T00:18:07.408Z,101763.41
2019-06-01T00:20:36.340Z,101760.31
2019-06-01T00:23:05.246Z,101762.99
2019-06-01T00:25:34.175Z,101761.41
2019-06-01T00:28:03.060Z,101757.10
2019-06-01T00:30:31.989Z,101754.67
2019-06-01T00:33:00.899Z,101748.05
2019-06-01T00:35:29.798Z,101753.22
2019-06-01T00:37:58.717Z,101750.58
2019-06-01T00:40:27.620Z,101748.27
2019-06-01T00:42:56.537Z,101748.70
2019-06-01T00:45:25.417Z,101742.53
2019-06-01T00:47:54.338Z,101745.30
2019-06-01T00:50:23.216Z,101743.94
2019-06-01T00:52:53.199Z,101750.47
2019-06-01T00:55:21.032Z,101747.55
2019-06-01T00:57:49.930Z,101751.91
2019-06-01T01:00:18.830Z,101749.69
2019-06-01T01:02:48.031Z,101755.12
2019-06-01T01:05:17.366Z,101754.95
2019-06-01T01:07:46.645Z,101750.34
2019-06-01T01:10:15.168Z,101755.82
2019-06-01T01:13:01.799Z,101756.98
2019-06-01T01:15:30.699Z,101750.81
2019-06-01T01:17:59.632Z,101750.31
2019-06-01T01:20:28.515Z,101749.95
2019-06-01T01:22:57.441Z,101755.66
2019-06-01T01:25:26.355Z,101758.02
2019-06-01T01:27:55.221Z,101757.15
2019-06-01T01:30:24.118Z,101757.65
2019-06-01T01:32:53.570Z,101762.09
2019-06-01T01:35:21.912Z,101757.21
2019-06-01T01:37:51.961Z,101761.66
2019-06-01T01:40:19.709Z,101757.58
2019-06-01T01:42:48.858Z,101751.73
2019-06-01T01:45:17.531Z,101755.52
2019-06-01T01:47:46.440Z,101762.59
2019-06-01T01:50:15.344Z,101756.28
2019-06-01T01:52:44.247Z,101758.34
2019-06-01T01:55:13.178Z,101753.89
2019-06-01T01:57:42.085Z,101761.93
2019-06-01T02:00:11.000Z,101762.80
2019-06-01T02:02:39.931Z,101754.25
2019-06-01T02:05:08.938Z,101766.64
2019-06-01T02:07:37.864Z,101759.63
2019-06-01T02:10:06.852Z,101757.91
2019-06-01T02:12:35.785Z,101751.59
2019-06-01T02:15:05.290Z,101757.11
2019-06-01T02:17:34.212Z,101757.77
2019-06-01T02:20:03.142Z,101759.79
2019-06-01T02:22:32.040Z,101756.20
2019-06-01T02:25:02.082Z,101756.13
2019-06-01T02:27:29.862Z,101757.75
2019-06-01T02:29:59.350Z,101756.02
2019-06-01T02:32:27.708Z,101759.98
2019-06-01T02:34:58.426Z,101762.83
2019-06-01T02:37:25.498Z,101764.82
2019-06-01T02:39:54.486Z,101755.95
2019-06-01T02:42:23.285Z,101754.48
2019-06-01T02:44:52.170Z,101756.23
2019-06-01T02:47:21.081Z,101758.82
2019-06-01T02:49:49.997Z,101754.39
2019-06-01T02:52:18.932Z,101754.33
2019-06-01T02:54:47.814Z,101754.72
2019-06-01T02:57:16.695Z,101759.45
2019-06-01T02:59:45.617Z,101755.50
2019-06-01T03:02:15.131Z,101751.05
2019-06-01T03:04:43.485Z,101752.91
2019-06-01T03:07:12.390Z,101749.92
2019-06-01T03:09:41.297Z,101749.43
2019-06-01T03:12:10.732Z,101754.12
2019-06-01T03:14:39.935Z,101745.66
2019-06-01T03:17:09.846Z,101749.13
2019-06-01T03:19:38.628Z,101753.73
2019-06-01T03:22:08.624Z,101755.33
2019-06-01T03:24:36.791Z,101766.39
2019-06-01T03:27:06.347Z,101765.69
2019-06-01T03:29:34.797Z,101762.89
2019-06-01T03:32:23.979Z,101765.87
2019-06-01T03:34:32.658Z,101763.28
2019-06-01T03:37:02.789Z,101768.98
2019-06-01T03:39:30.566Z,101764.33
2019-06-01T03:41:59.478Z,101759.56
2019-06-01T03:44:28.379Z,101759.81
2019-06-01T03:46:57.298Z,101761.80
2019-06-01T03:49:26.219Z,101755.99
2019-06-01T03:51:55.099Z,101753.14
2019-06-01T03:54:24.013Z,101752.28
2019-06-01T03:56:52.901Z,101753.77
2019-06-01T03:59:21.807Z,101758.84
2019-06-01T04:01:50.733Z,101756.98
2019-06-01T04:04:19.636Z,101758.85
2019-06-01T04:06:48.581Z,101762.72
2019-06-01T04:09:17.483Z,101766.92
2019-06-01T04:11:46.404Z,101761.66
2019-06-01T04:14:15.300Z,101763.36
2019-06-01T04:16:44.237Z,101762.98
2019-06-01T04:19:13.155Z,101756.80
2019-06-01T04:21:42.089Z,101747.47
2019-06-01T04:24:12.198Z,101753.61
2019-06-01T04:26:39.901Z,101755.70
2019-06-01T04:29:10.271Z,101754.19
2019-06-01T04:31:37.876Z,101753.23
2019-06-01T04:34:06.882Z,101753.10
2019-06-01T04:36:35.803Z,101747.19
2019-06-01T04:39:07.337Z,101753.33
2019-06-01T04:41:35.375Z,101759.94
2019-06-01T04:44:04.396Z,101758.50
2019-06-01T04:46:33.291Z,101760.55
2019-06-01T04:49:02.202Z,101764.87
2019-06-01T04:51:31.118Z,101764.02
2019-06-01T04:54:00.009Z,101762.16
2019-06-01T04:56:28.918Z,101754.70
2019-06-01T04:58:57.801Z,101752.48
2019-06-01T05:01:26.707Z,101759.17
2019-06-01T05:03:55.609Z,101757.95
2019-06-01T05:06:24.488Z,101756.67
2019-06-01T05:08:53.409Z,101764.58
2019-06-01T05:11:22.290Z,101771.17
2019-06-01T05:13:51.182Z,101773.62
2019-06-01T05:16:20.094Z,101766.98
2019-06-01T05:18:49.000Z,101766.55
2019-06-01T05:21:17.907Z,101762.65
2019-06-01T05:23:46.824Z,101756.94
2019-06-01T05:26:17.038Z,101754.22
2019-06-01T05:28:44.668Z,101755.05
2019-06-01T05:31:21.953Z,101755.08
2019-06-01T05:33:42.519Z,101756.69
2019-06-01T05:36:12.004Z,101761.34
2019-06-01T05:38:40.308Z,101759.63
2019-06-01T05:41:10.348Z,101753.20
2019-06-01T05:43:38.197Z,101753.68
2019-06-01T05:46:07.226Z,101758.25
2019-06-01T05:48:36.129Z,101756.53
2019-06-01T05:51:05.279Z,101758.52
2019-06-01T05:53:34.219Z,101760.88
2019-06-01T05:56:03.125Z,101761.91
2019-06-01T05:58:32.031Z,101764.75
2019-06-01T06:01:00.921Z,101762.11
2019-06-01T06:03:39.870Z,101764.39
2019-06-01T06:05:58.747Z,101765.95
2019-06-01T06:08:27.657Z,101769.98
2019-06-01T06:10:56.563Z,101767.08
2019-06-01T06:13:25.443Z,101766.39
2019-06-01T06:15:54.342Z,101762.05
2019-06-01T06:18:23.230Z,101768.23
2019-06-01T06:20:52.138Z,101762.95
2019-06-01T06:23:21.034Z,101772.59
2019-06-01T06:25:49.956Z,101760.86
2019-06-01T06:28:18.887Z,101766.73
2019-06-01T06:30:47.757Z,101771.22
2019-06-01T06:33:17.375Z,101776.59
2019-06-01T06:35:45.556Z,101772.18
2019-06-01T06:38:15.596Z,101768.44
2019-06-01T06:40:43.342Z,101767.64
2019-06-01T06:43:21.775Z,101769.09
2019-06-01T06:45:41.177Z,101766.93
2019-06-01T06:48:10.122Z,101766.73
2019-06-01T06:50:39.010Z,101769.04
2019-06-01T06:53:08.020Z,101772.13
2019-06-01T06:55:36.867Z,101764.34
2019-06-01T06:58:05.867Z,101767.92
2019-06-01T07:00:34.804Z,101761.00
2019-06-01T07:03:03.803Z,101766.05
2019-06-01T07:05:32.723Z,101770.42
2019-06-01T07:08:01.591Z,101766.31
2019-06-01T07:10:30.505Z,101763.77
2019-06-01T07:12:59.400Z,101768.02
2019-06-01T07:15:28.294Z,101754.86
2019-06-01T07:17:57.199Z,101759.92
2019-06-01T07:20:26.114Z,101752.98
2019-06-01T07:22:55.021Z,101748.67
2019-06-01T07:25:24.745Z,101756.78
2019-06-01T07:27:52.817Z,101748.13
2019-06-01T07:30:22.227Z,101751.52
2019-06-01T07:32:50.655Z,101753.44
2019-06-01T07:35:20.497Z,101745.79
2019-06-01T07:37:48.441Z,101744.83
2019-06-01T07:40:17.348Z,101747.64
2019-06-01T07:42:46.226Z,101745.45
2019-06-01T07:45:15.110Z,101746.94
2019-06-01T07:47:44.034Z,101747.24
2019-06-01T07:50:12.937Z,101747.63
2019-06-01T07:52:41.843Z,101750.10
2019-06-01T07:55:10.797Z,101747.50
2019-06-01T07:57:43.038Z,101742.48
2019-06-01T08:00:08.735Z,101739.81
2019-06-01T08:02:37.636Z,101747.46
2019-06-01T08:05:06.656Z,101737.82
2019-06-01T08:07:35.498Z,101743.21
2019-06-01T08:10:04.682Z,101739.78
2019-06-01T08:12:33.579Z,101745.36
2019-06-01T08:15:02.524Z,101737.42
2019-06-01T08:17:32.241Z,101743.08
2019-06-01T08:20:00.318Z,101746.92
2019-06-01T08:22:30.073Z,101749.55
2019-06-01T08:24:58.127Z,101746.85
2019-06-01T08:27:27.029Z,101733.09
2019-06-01T08:29:55.920Z,101740.36
2019-06-01T08:32:24.832Z,101741.17
2019-06-01T08:35:07.321Z,101742.92
2019-06-01T08:37:23.469Z,101730.22
2019-06-01T08:39:51.535Z,101733.61
2019-06-01T08:42:20.445Z,101728.55
2019-06-01T08:44:49.336Z,101727.84
2019-06-01T08:47:18.248Z,101731.77
2019-06-01T08:49:47.131Z,101729.61
2019-06-01T08:52:16.036Z,101723.33
2019-06-01T08:54:44.934Z,101732.70
2019-06-01T08:57:13.848Z,101711.86
2019-06-01T08:59:42.727Z,101729.61
2019-06-01T09:02:11.622Z,101732.63
2019-06-01T09:04:40.526Z,101728.95
2019-06-01T09:07:09.436Z,101723.72
2019-06-01T09:09:38.317Z,101724.53
2019-06-01T09:12:07.363Z,101727.59
2019-06-01T09:14:36.245Z,101728.13
2019-06-01T09:17:05.336Z,101724.52
2019-06-01T09:19:35.591Z,101729.34
2019-06-01T09:22:03.249Z,101710.01
2019-06-01T09:24:32.138Z,101708.64
2019-06-01T09:27:01.050Z,101715.70
2019-06-01T09:29:30.140Z,101703.84
2019-06-01T09:31:58.847Z,101702.43
2019-06-01T09:34:28.414Z,101701.30
2019-06-01T09:36:56.628Z,101704.39
2019-06-01T09:39:26.634Z,101709.09
2019-06-01T09:41:54.415Z,101711.36
2019-06-01T09:44:23.313Z,101704.17
2019-06-01T09:46:52.194Z,101706.55
2019-06-01T09:49:21.099Z,101695.50
2019-06-01T09:51:49.979Z,101702.55
2019-06-01T09:54:18.882Z,101697.66
2019-06-01T09:56:47.756Z,101699.16
2019-06-01T09:59:16.654Z,101712.27
2019-06-01T10:01:45.609Z,101706.20
2019-06-01T10:04:14.436Z,101706.33
2019-06-01T10:06:43.327Z,101704.30
2019-06-01T10:09:12.230Z,101698.88
2019-06-01T10:11:42.374Z,101710.31
2019-06-01T10:14:10.035Z,101699.54
2019-06-01T10:16:39.147Z,101710.42
2019-06-01T10:19:07.973Z,101702.89
2019-06-01T10:21:37.957Z,101699.67
2019-06-01T10:24:05.806Z,101706.95
2019-06-01T10:26:35.748Z,101701.48
2019-06-01T10:29:03.711Z,101697.39
2019-06-01T10:31:32.669Z,101699.88
2019-06-01T10:34:02.095Z,101713.61
2019-06-01T10:36:31.913Z,101714.27
2019-06-01T10:39:03.580Z,101707.34
2019-06-01T10:41:33.230Z,101709.35
2019-06-01T10:44:02.099Z,101711.72
2019-06-01T10:46:31.927Z,101720.38
2019-06-01T10:49:11.329Z,101712.05
2019-06-01T10:51:40.535Z,101697.11
2019-06-01T10:54:09.708Z,101698.09
2019-06-01T10:56:40.553Z,101705.31
2019-06-01T10:59:08.874Z,101702.85
2019-06-01T11:01:40.919Z,101692.92
2019-06-01T11:04:12.007Z,101692.66
2019-06-01T11:06:46.667Z,101699.75
2019-06-01T11:09:13.364Z,101692.02
2019-06-01T11:11:43.223Z,101691.64
2019-06-01T11:14:16.821Z,101692.00
2019-06-01T11:16:45.897Z,101683.69
2019-06-01T11:19:15.171Z,101680.23
2019-06-01T11:21:44.382Z,101677.50
2019-06-01T11:24:13.839Z,101666.88
2019-06-01T11:26:43.881Z,101670.16
2019-06-01T11:29:12.266Z,101665.69
2019-06-01T11:31:42.174Z,101660.55
2019-06-01T11:34:13.167Z,101661.59
2019-06-01T11:37:03.648Z,101667.30
2019-06-01T11:39:14.192Z,101667.92
2019-06-01T11:41:46.079Z,101665.26
2019-06-01T11:44:15.340Z,101660.16
2019-06-01T11:46:45.164Z,101660.07
2019-06-01T11:49:13.620Z,101654.23
2019-06-01T11:51:43.329Z,101659.34
2019-06-01T11:54:11.696Z,101655.04
2019-06-01T11:56:45.522Z,101655.78
2019-06-01T11:59:13.898Z,101654.77
2019-06-01T12:01:46.034Z,101656.89
2019-06-01T12:04:12.508Z,101654.55
2019-06-01T12:06:42.072Z,101649.86
2019-06-01T12:09:10.809Z,101641.45
2019-06-01T12:11:44.141Z,101641.05
2019-06-01T12:14:11.823Z,101643.86
2019-06-01T12:16:42.283Z,101636.92
2019-06-01T12:19:10.522Z,101630.75
2019-06-01T12:21:42.919Z,101633.19
2019-06-01T12:24:11.435Z,101636.59
2019-06-01T12:26:41.343Z,101636.88
2019-06-01T12:29:09.758Z,101631.45
2019-06-01T12:31:39.639Z,101622.60
2019-06-01T12:34:08.467Z,101616.35
2019-06-01T12:36:39.388Z,101625.40
2019-06-01T12:39:08.293Z,101617.98
2019-06-01T12:41:43.508Z,101620.76
2019-06-01T12:44:15.687Z,101608.98
2019-06-01T12:46:44.978Z,101608.94
2019-06-01T12:49:14.161Z,101596.01
2019-06-01T12:51:44.563Z,101606.59
2019-06-01T12:54:12.624Z,101604.06
2019-06-01T12:56:42.822Z,101602.39
2019-06-01T12:59:11.151Z,101591.91
2019-06-01T13:01:41.019Z,101590.05
2019-06-01T13:04:09.536Z,101584.38
2019-06-01T13:06:44.632Z,101581.00
2019-06-01T13:09:15.487Z,101579.91
2019-06-01T13:11:45.246Z,101587.09
2019-06-01T13:14:16.332Z,101582.23
2019-06-01T13:16:56.945Z,101579.15
2019-06-01T13:19:18.751Z,101580.91
2019-06-01T13:21:51.733Z,101584.64
2019-06-01T13:24:22.642Z,101572.86
2019-06-01T13:26:54.744Z,101566.73
2019-06-01T13:29:26.667Z,101563.17
2019-06-01T13:31:55.883Z,101560.98
2019-06-01T13:34:25.067Z,101567.41
2019-06-01T13:36:54.446Z,101555.30
2019-06-01T13:39:23.929Z,101568.44
2019-06-01T13:41:53.459Z,101560.83
2019-06-01T13:44:22.229Z,101563.79
2019-06-01T13:46:52.035Z,101559.49
2019-06-01T13:49:21.081Z,101561.31
2019-06-01T13:51:52.796Z,101556.58
2019-06-01T13:54:25.537Z,101549.55
2019-06-01T13:57:00.911Z,101549.70
2019-06-01T13:59:36.125Z,101545.57
2019-06-01T14:02:05.684Z,101540.80
2019-06-01T14:04:34.913Z,101529.70
2019-06-01T14:07:04.836Z,101537.86
2019-06-01T14:09:33.970Z,101532.25
2019-06-01T14:12:03.330Z,101530.64
2019-06-01T14:14:35.153Z,101529.66
2019-06-01T14:17:07.447Z,101534.14
2019-06-01T14:19:36.576Z,101530.55
2019-06-01T14:22:05.751Z,101525.91
2019-06-01T14:24:35.012Z,101524.00
2019-06-01T14:27:06.065Z,101523.26
2019-06-01T14:29:33.773Z,101515.63
2019-06-01T14:32:03.006Z,101517.77
2019-06-01T14:34:32.281Z,101519.41
2019-06-01T14:37:04.428Z,101514.77
2019-06-01T14:39:33.864Z,101510.95
2019-06-01T14:42:08.976Z,101515.59
2019-06-01T14:44:37.913Z,101509.30
2019-06-01T14:47:07.395Z,101505.09
2019-06-01T14:49:39.586Z,101508.94
2019-06-01T14:52:08.783Z,101516.71
2019-06-01T14:54:37.907Z,101515.55
2019-06-01T14:57:08.425Z,101508.69
2019-06-01T14:59:41.416Z,101512.14
2019-06-01T15:02:10.575Z,101514.15
2019-06-01T15:04:39.976Z,101508.47
2019-06-01T15:07:09.330Z,101508.25
2019-06-01T15:09:43.121Z,101506.45
2019-06-01T15:12:10.167Z,101498.25
2019-06-01T15:14:46.615Z,101496.54
2019-06-01T15:17:18.592Z,101488.61
2019-06-01T15:19:50.164Z,101486.62
2019-06-01T15:22:19.307Z,101490.13
2019-06-01T15:24:50.363Z,101478.27
2019-06-01T15:27:19.237Z,101487.33
2019-06-01T15:29:48.245Z,101481.11
2019-06-01T15:32:17.322Z,101476.64
2019-06-01T15:34:46.453Z,101471.34
2019-06-01T15:37:15.654Z,101470.73
2019-06-01T15:39:44.910Z,101474.31
2019-06-01T15:42:16.563Z,101473.45
2019-06-01T15:44:45.634Z,101475.08
2019-06-01T15:47:14.815Z,101474.36
2019-06-01T15:49:43.969Z,101469.40
2019-06-01T15:52:13.114Z,101464.64
2019-06-01T15:54:42.426Z,101457.84
2019-06-01T15:57:11.544Z,101466.45
2019-06-01T15:59:43.227Z,101452.88
2019-06-01T16:02:17.916Z,101455.27
2019-06-01T16:04:47.070Z,101446.72
2019-06-01T16:07:16.187Z,101449.86
2019-06-01T16:09:45.197Z,101450.03
2019-06-01T16:12:14.335Z,101445.12
2019-06-01T16:14:43.447Z,101441.93
2019-06-01T16:17:12.584Z,101442.47
2019-06-01T16:19:42.031Z,101439.20
2019-06-01T16:22:11.225Z,101436.56
2019-06-01T16:24:40.418Z,101431.42
2019-06-01T16:27:22.598Z,101431.53
2019-06-01T16:29:51.448Z,101431.73
2019-06-01T16:32:20.618Z,101428.23
2019-06-01T16:34:49.708Z,101427.20
2019-06-01T16:37:21.783Z,101431.02
2019-06-01T16:40:01.664Z,101421.91
2019-06-01T16:42:20.382Z,101429.89
2019-06-01T16:44:49.292Z,101433.91
2019-06-01T16:47:18.189Z,101424.41
2019-06-01T16:49:47.086Z,101431.05
2019-06-01T16:52:15.961Z,101433.05
2019-06-01T16:54:44.852Z,101431.13
2019-06-01T16:57:13.765Z,101433.22
2019-06-01T16:59:42.657Z,101430.89
2019-06-01T17:02:12.025Z,101428.46
2019-06-01T17:04:40.907Z,101435.16
2019-06-01T17:07:09.880Z,101429.77
2019-06-01T17:09:38.794Z,101429.80
2019-06-01T17:12:07.891Z,101430.90
2019-06-01T17:14:36.768Z,101431.78
2019-06-01T17:17:07.353Z,101433.13
2019-06-01T17:19:34.847Z,101435.52
2019-06-01T17:22:03.734Z,101426.48
2019-06-01T17:24:32.633Z,101423.43
2019-06-01T17:27:02.122Z,101426.64
2019-06-01T17:29:30.463Z,101425.36
2019-06-01T17:32:14.341Z,101421.06
2019-06-01T17:34:28.297Z,101423.08
2019-06-01T17:36:57.173Z,101414.11
2019-06-01T17:39:26.080Z,101417.55
2019-06-01T17:41:54.969Z,101416.12
2019-06-01T17:44:23.859Z,101408.66
2019-06-01T17:46:54.067Z,101408.35
2019-06-01T17:49:21.662Z,101406.19
2019-06-01T17:51:50.574Z,101408.00
2019-06-01T17:54:19.473Z,101407.69
2019-06-01T17:56:48.370Z,101409.64
2019-06-01T17:59:17.244Z,101409.48
2019-06-01T18:01:46.146Z,101405.52
2019-06-01T18:04:15.049Z,101401.36
2019-06-01T18:06:43.980Z,101402.19
2019-06-01T18:09:12.865Z,101398.34
2019-06-01T18:11:41.735Z,101400.56
2019-06-01T18:14:10.720Z,101399.88
2019-06-01T18:16:39.624Z,101404.65
2019-06-01T18:19:08.661Z,101402.72
2019-06-01T18:21:37.554Z,101401.50
2019-06-01T18:24:07.921Z,101399.70
2019-06-01T18:26:35.429Z,101397.06
2019-06-01T18:29:04.493Z,101390.50
2019-06-01T18:31:33.319Z,101393.33
2019-06-01T18:34:03.210Z,101388.38
2019-06-01T18:36:31.108Z,101388.02
2019-06-01T18:38:59.998Z,101389.70
2019-06-01T18:41:28.896Z,101396.46
2019-06-01T18:43:57.787Z,101398.61
2019-06-01T18:46:26.709Z,101394.95
2019-06-01T18:48:55.579Z,101397.98
2019-06-01T18:51:24.479Z,101400.71
2019-06-01T18:53:53.344Z,101396.37
2019-06-01T18:56:22.272Z,101390.94
2019-06-01T18:58:51.155Z,101390.52
2019-06-01T19:01:21.144Z,101394.89
2019-06-01T19:03:48.953Z,101389.19
2019-06-01T19:06:17.853Z,101380.06
2019-06-01T19:08:46.730Z,101383.09
2019-06-01T19:11:31.690Z,101384.84
2019-06-01T19:13:44.560Z,101382.76
2019-06-01T19:16:14.322Z,101387.20
2019-06-01T19:18:42.334Z,101387.98
2019-06-01T19:21:11.240Z,101391.64
2019-06-01T19:23:40.156Z,101389.34
2019-06-01T19:26:13.062Z,101389.11
2019-06-01T19:28:38.101Z,101382.85
2019-06-01T19:31:07.043Z,101388.39
2019-06-01T19:33:35.902Z,101386.70
2019-06-01T19:36:04.847Z,101389.48
2019-06-01T19:38:33.739Z,101397.59
2019-06-01T19:41:02.762Z,101397.67
2019-06-01T19:43:31.614Z,101398.20
2019-06-01T19:46:00.514Z,101393.41
2019-06-01T19:48:29.391Z,101400.02
2019-06-01T19:50:58.274Z,101407.34
2019-06-01T19:53:27.188Z,101407.52
2019-06-01T19:55:56.091Z,101405.80
2019-06-01T19:58:24.995Z,101401.50
2019-06-01T20:00:53.908Z,101400.72
2019-06-01T20:03:23.925Z,101396.36
2019-06-01T20:05:51.693Z,101393.34
2019-06-01T20:08:20.587Z,101398.21
2019-06-01T20:10:49.560Z,101402.22
2019-06-01T20:13:19.314Z,101396.16
2019-06-01T20:15:47.273Z,101397.62
2019-06-01T20:18:17.173Z,101396.67
2019-06-01T20:20:45.065Z,101392.40
2019-06-01T20:23:15.151Z,101389.89
2019-06-01T20:25:42.825Z,101392.60
2019-06-01T20:28:11.787Z,101391.16
2019-06-01T20:30:40.618Z,101391.63
2019-06-01T20:33:09.544Z,101383.34
2019-06-01T20:35:38.436Z,101378.55
2019-06-01T20:38:07.440Z,101384.97
2019-06-01T20:40:36.345Z,101385.72
2019-06-01T20:43:05.332Z,101372.70
2019-06-01T20:45:34.204Z,101376.65
2019-06-01T20:48:03.074Z,101377.42
2019-06-01T20:50:32.001Z,101383.77
2019-06-01T20:53:00.871Z,101379.28
2019-06-01T20:55:29.775Z,101374.34
2019-06-01T20:57:58.649Z,101376.92
2019-06-01T21:00:31.103Z,101386.95
2019-06-01T21:02:56.428Z,101383.95
2019-06-01T21:05:25.377Z,101375.63
2019-06-01T21:07:57.035Z,101379.77
2019-06-01T21:10:24.189Z,101370.97
2019-06-01T21:12:52.047Z,101373.40
2019-06-01T21:15:21.297Z,101371.49
2019-06-01T21:17:50.425Z,101371.55
2019-06-01T21:20:25.391Z,101369.83
2019-06-01T21:22:47.633Z,101368.02
2019-06-01T21:25:16.738Z,101370.02
2019-06-01T21:27:45.435Z,101366.73
2019-06-01T21:30:16.094Z,101366.21
2019-06-01T21:32:43.248Z,101364.20
2019-06-01T21:35:12.130Z,101361.97
2019-06-01T21:37:41.047Z,101358.22
2019-06-01T21:40:09.934Z,101362.55
2019-06-01T21:42:39.997Z,101354.83
2019-06-01T21:45:07.778Z,101356.84
2019-06-01T21:47:36.671Z,101353.48
2019-06-01T21:50:05.575Z,101353.75
2019-06-01T21:52:34.480Z,101353.51
2019-06-01T21:55:03.356Z,101354.81
2019-06-01T21:57:32.306Z,101349.91
2019-06-01T22:00:01.179Z,101346.19
2019-06-01T22:02:30.068Z,101346.92
2019-06-01T22:04:58.954Z,101342.98
2019-06-01T22:07:27.856Z,101341.08
2019-06-01T22:09:56.760Z,101342.30
2019-06-01T22:12:25.785Z,101331.95
2019-06-01T22:14:54.549Z,101333.39
2019-06-01T22:17:23.733Z,101326.28
2019-06-01T22:19:52.329Z,101333.69
2019-06-01T22:22:21.708Z,101330.45
2019-06-01T22:24:50.116Z,101328.62
2019-06-01T22:27:20.106Z,101325.72
2019-06-01T22:29:47.923Z,101317.20
2019-06-01T22:32:16.798Z,101324.94
2019-06-01T22:34:45.742Z,101316.72
2019-06-01T22:37:14.629Z,101316.86
2019-06-01T22:39:43.513Z,101314.48
2019-06-01T22:42:12.452Z,101314.65
2019-06-01T22:44:41.314Z,101317.50
2019-06-01T22:47:10.199Z,101312.94
2019-06-01T22:49:39.115Z,101313.55
2019-06-01T22:52:08.070Z,101315.44
2019-06-01T22:54:36.956Z,101306.40
2019-06-01T22:57:05.939Z,101304.56
2019-06-01T22:59:34.818Z,101301.98
2019-06-01T23:02:03.726Z,101292.75
2019-06-01T23:04:32.599Z,101293.33
2019-06-01T23:07:01.528Z,101291.64
2019-06-01T23:09:31.676Z,101289.99
2019-06-01T23:11:59.337Z,101287.27
2019-06-01T23:14:29.371Z,101287.61
2019-06-01T23:16:57.131Z,101285.53
2019-06-01T23:19:26.024Z,101285.56
2019-06-01T23:21:54.944Z,101284.61
2019-06-01T23:24:24.012Z,101278.86
2019-06-01T23:26:52.757Z,101280.61
2019-06-01T23:29:22.268Z,101275.61
2019-06-01T23:31:50.622Z,101277.89
2019-06-01T23:34:19.482Z,101279.86
2019-06-01T23:36:48.378Z,101278.84
2019-06-01T23:39:17.259Z,101281.95
2019-06-01T23:41:46.142Z,101280.78
2019-06-01T23:44:15.021Z,101270.00
2019-06-01T23:46:43.928Z,101265.72
2019-06-01T23:49:12.825Z,101263.05
2019-06-01T23:51:41.711Z,101257.73
2019-06-01T23:54:10.591Z,101259.49
2019-06-01T23:56:39.501Z,101257.78
2019-06-01T23:59:08.390Z,101254.53
